SWA32T KPVD-KDCA
Flight info
| Callsign | SWA32T |
|---|---|
| Flight time | 1h 5m |
| Altitude | 38000 |
| Route | DCT JUMPR DCT RIFLE Q167 ZIZZI DCT KNUKK DCT ATR DCT LAFLN DEALE3 |
| Aircraft | B738/M-SDE2E3FGHIRWXY/LB1 |
Departure
| Time | 2026-04-21 16:49 |
|---|---|
| Airport | Rhode Island T. F. Green International Airport (KPVD) |
Arrival
| Time | 2026-04-21 17:54 |
|---|---|
| Airport | Ronald Reagan Washington National Airport (KDCA) |
| Time | Latitude | Longitude | Altitude | Speed | Heading |
|---|---|---|---|---|---|
| 2026-04-21 16:32 | 41.72576 | -71.43450 | 59 ft | 0 kts | 331° |
| 2026-04-21 16:38 | 41.72560 | -71.43437 | 59 ft | 4 kts | 322° |
| 2026-04-21 16:38 | 41.72539 | -71.43417 | 59 ft | 4 kts | 331° |
| 2026-04-21 16:39 | 41.72515 | -71.43406 | 59 ft | 4 kts | 4° |
| 2026-04-21 16:39 | 41.72490 | -71.43415 | 58 ft | 3 kts | 31° |
| 2026-04-21 16:39 | 41.72485 | -71.43420 | 58 ft | 0 kts | 32° |
| 2026-04-21 16:43 | 41.72485 | -71.43419 | 58 ft | 1 kts | 32° |
| 2026-04-21 16:43 | 41.72498 | -71.43409 | 59 ft | 4 kts | 32° |
| 2026-04-21 16:43 | 41.72535 | -71.43378 | 59 ft | 9 kts | 32° |
| 2026-04-21 16:43 | 41.72561 | -71.43347 | 56 ft | 3 kts | 48° |
| 2026-04-21 16:44 | 41.72553 | -71.43301 | 54 ft | 8 kts | 125° |
| 2026-04-21 16:44 | 41.72543 | -71.43205 | 58 ft | 13 kts | 86° |
| 2026-04-21 16:44 | 41.72550 | -71.43068 | 56 ft | 15 kts | 86° |
| 2026-04-21 16:44 | 41.72557 | -71.42930 | 52 ft | 15 kts | 89° |
| 2026-04-21 16:45 | 41.72513 | -71.42805 | 52 ft | 17 kts | 122° |
| 2026-04-21 16:45 | 41.72443 | -71.42657 | 51 ft | 19 kts | 123° |
| 2026-04-21 16:45 | 41.72349 | -71.42539 | 51 ft | 19 kts | 142° |
| 2026-04-21 16:45 | 41.72251 | -71.42436 | 57 ft | 16 kts | 142° |
| 2026-04-21 16:46 | 41.72185 | -71.42323 | 53 ft | 15 kts | 133° |
| 2026-04-21 16:46 | 41.72103 | -71.42236 | 54 ft | 15 kts | 142° |
| 2026-04-21 16:46 | 41.72025 | -71.42154 | 53 ft | 14 kts | 142° |
| 2026-04-21 16:46 | 41.71953 | -71.42078 | 50 ft | 13 kts | 141° |
| 2026-04-21 16:47 | 41.71884 | -71.42004 | 48 ft | 12 kts | 141° |
| 2026-04-21 16:47 | 41.71822 | -71.41934 | 51 ft | 6 kts | 119° |
| 2026-04-21 16:47 | 41.71842 | -71.41881 | 50 ft | 7 kts | 50° |
| 2026-04-21 16:47 | 41.71891 | -71.41862 | 49 ft | 7 kts | 332° |
| 2026-04-21 16:48 | 41.71920 | -71.41898 | 46 ft | 0 kts | 322° |
| 2026-04-21 16:48 | 41.71997 | -71.41979 | 47 ft | 45 kts | 321° |
| 2026-04-21 16:48 | 41.72452 | -71.42461 | 52 ft | 119 kts | 321° |
| 2026-04-21 16:48 | 41.73254 | -71.43321 | 210 ft | 166 kts | 320° |
| 2026-04-21 16:49 | 41.74142 | -71.44225 | 1207 ft | 154 kts | 323° |
| 2026-04-21 16:49 | 41.74985 | -71.45118 | 1958 ft | 163 kts | 318° |
| 2026-04-21 16:49 | 41.75501 | -71.46595 | 2271 ft | 197 kts | 271° |
| 2026-04-21 16:49 | 41.74985 | -71.48376 | 2512 ft | 223 kts | 227° |
| 2026-04-21 16:50 | 41.73574 | -71.49296 | 2928 ft | 237 kts | 185° |
| 2026-04-21 16:50 | 41.71969 | -71.48915 | 3628 ft | 236 kts | 161° |
| 2026-04-21 16:50 | 41.70434 | -71.48172 | 4254 ft | 241 kts | 159° |
| 2026-04-21 16:50 | 41.68857 | -71.47384 | 4969 ft | 242 kts | 159° |
| 2026-04-21 16:51 | 41.67241 | -71.46593 | 5525 ft | 255 kts | 160° |
| 2026-04-21 16:51 | 41.65507 | -71.45768 | 6043 ft | 270 kts | 161° |
| 2026-04-21 16:51 | 41.63713 | -71.44936 | 6832 ft | 276 kts | 162° |
| 2026-04-21 16:51 | 41.61878 | -71.44102 | 7587 ft | 282 kts | 162° |
| 2026-04-21 16:52 | 41.60001 | -71.43262 | 8359 ft | 287 kts | 163° |
| 2026-04-21 16:52 | 41.58088 | -71.42415 | 9123 ft | 292 kts | 163° |
| 2026-04-21 16:52 | 41.56803 | -71.41850 | 9622 ft | 296 kts | 163° |
| 2026-04-21 16:52 | 41.54165 | -71.40697 | 10424 ft | 312 kts | 164° |
| 2026-04-21 16:53 | 41.52019 | -71.39765 | 10606 ft | 336 kts | 163° |
| 2026-04-21 16:53 | 41.49740 | -71.38777 | 10982 ft | 351 kts | 163° |
| 2026-04-21 16:53 | 41.47391 | -71.37758 | 11591 ft | 358 kts | 163° |
| 2026-04-21 16:53 | 41.44998 | -71.36720 | 12282 ft | 364 kts | 164° |
| 2026-04-21 16:54 | 41.42571 | -71.35670 | 12981 ft | 370 kts | 164° |
| 2026-04-21 16:54 | 41.40103 | -71.34602 | 13697 ft | 376 kts | 164° |
| 2026-04-21 16:54 | 41.37593 | -71.33519 | 14386 ft | 383 kts | 164° |
| 2026-04-21 16:54 | 41.35041 | -71.32418 | 15056 ft | 388 kts | 164° |
| 2026-04-21 16:55 | 41.32493 | -71.31319 | 15744 ft | 393 kts | 164° |
| 2026-04-21 16:55 | 41.29875 | -71.30190 | 16419 ft | 398 kts | 164° |
| 2026-04-21 16:55 | 41.27218 | -71.29046 | 17091 ft | 404 kts | 164° |
| 2026-04-21 16:55 | 41.24521 | -71.27888 | 17760 ft | 410 kts | 165° |
| 2026-04-21 16:56 | 41.21728 | -71.27193 | 18374 ft | 410 kts | 185° |
| 2026-04-21 16:56 | 41.18960 | -71.27848 | 19014 ft | 401 kts | 206° |
| 2026-04-21 16:56 | 41.16559 | -71.29600 | 19666 ft | 390 kts | 225° |
| 2026-04-21 16:56 | 41.14644 | -71.32078 | 20312 ft | 380 kts | 240° |
| 2026-04-21 16:57 | 41.13325 | -71.35059 | 20943 ft | 374 kts | 251° |
| 2026-04-21 16:57 | 41.12207 | -71.38183 | 21546 ft | 376 kts | 252° |
| 2026-04-21 16:57 | 41.11129 | -71.41313 | 22117 ft | 380 kts | 253° |
| 2026-04-21 16:57 | 41.10032 | -71.44516 | 22721 ft | 384 kts | 253° |
| 2026-04-21 16:58 | 41.08917 | -71.47748 | 23245 ft | 388 kts | 253° |
| 2026-04-21 16:58 | 41.07777 | -71.51019 | 23815 ft | 392 kts | 252° |
| 2026-04-21 16:58 | 41.06621 | -71.54308 | 24332 ft | 395 kts | 252° |
| 2026-04-21 16:58 | 41.05452 | -71.57606 | 24832 ft | 396 kts | 253° |
| 2026-04-21 16:59 | 41.04273 | -71.60920 | 25333 ft | 398 kts | 253° |
| 2026-04-21 16:59 | 41.03087 | -71.64247 | 25808 ft | 401 kts | 253° |
| 2026-04-21 16:59 | 41.01892 | -71.67596 | 26253 ft | 404 kts | 253° |
| 2026-04-21 16:59 | 41.00702 | -71.70924 | 26674 ft | 407 kts | 253° |
| 2026-04-21 17:00 | 40.99486 | -71.74319 | 27122 ft | 409 kts | 253° |
| 2026-04-21 17:00 | 40.98263 | -71.77730 | 27554 ft | 412 kts | 253° |
| 2026-04-21 17:00 | 40.97447 | -71.80006 | 27832 ft | 414 kts | 253° |
| 2026-04-21 17:00 | 40.95788 | -71.84626 | 28372 ft | 417 kts | 253° |
| 2026-04-21 17:01 | 40.94538 | -71.88102 | 28746 ft | 420 kts | 253° |
| 2026-04-21 17:01 | 40.93277 | -71.91606 | 29112 ft | 423 kts | 253° |
| 2026-04-21 17:01 | 40.92008 | -71.95124 | 29506 ft | 425 kts | 253° |
| 2026-04-21 17:01 | 40.90730 | -71.98664 | 29890 ft | 428 kts | 253° |
| 2026-04-21 17:02 | 40.89486 | -72.02104 | 30236 ft | 430 kts | 253° |
| 2026-04-21 17:02 | 40.88191 | -72.05685 | 30562 ft | 433 kts | 253° |
| 2026-04-21 17:02 | 40.86888 | -72.09280 | 30850 ft | 435 kts | 253° |
| 2026-04-21 17:02 | 40.85578 | -72.12888 | 31160 ft | 436 kts | 253° |
| 2026-04-21 17:03 | 40.84263 | -72.16506 | 31450 ft | 438 kts | 253° |
| 2026-04-21 17:03 | 40.82945 | -72.20129 | 31785 ft | 438 kts | 253° |
| 2026-04-21 17:03 | 40.81625 | -72.23746 | 32225 ft | 436 kts | 253° |
| 2026-04-21 17:03 | 40.80313 | -72.27339 | 32615 ft | 434 kts | 253° |
| 2026-04-21 17:04 | 40.79005 | -72.30921 | 32979 ft | 433 kts | 253° |
| 2026-04-21 17:04 | 40.77714 | -72.34455 | 33320 ft | 433 kts | 253° |
| 2026-04-21 17:04 | 40.76405 | -72.38035 | 33712 ft | 432 kts | 253° |
| 2026-04-21 17:04 | 40.75100 | -72.41597 | 34115 ft | 431 kts | 253° |
| 2026-04-21 17:05 | 40.73798 | -72.45148 | 34482 ft | 430 kts | 252° |
| 2026-04-21 17:05 | 40.72498 | -72.48693 | 34749 ft | 430 kts | 252° |
| 2026-04-21 17:05 | 40.71193 | -72.52245 | 34967 ft | 431 kts | 252° |
| 2026-04-21 17:05 | 40.69811 | -72.55774 | 35203 ft | 438 kts | 246° |
| 2026-04-21 17:06 | 40.68031 | -72.59067 | 35467 ft | 447 kts | 238° |
| 2026-04-21 17:06 | 40.65845 | -72.62039 | 35708 ft | 456 kts | 230° |
| 2026-04-21 17:06 | 40.63456 | -72.64786 | 35995 ft | 456 kts | 229° |
| 2026-04-21 17:06 | 40.61038 | -72.67503 | 36248 ft | 457 kts | 228° |
| 2026-04-21 17:07 | 40.59436 | -72.69297 | 36414 ft | 457 kts | 228° |
| 2026-04-21 17:07 | 40.56244 | -72.72890 | 36767 ft | 456 kts | 228° |
| 2026-04-21 17:07 | 40.53843 | -72.75615 | 37047 ft | 455 kts | 229° |
| 2026-04-21 17:07 | 40.51457 | -72.78338 | 37307 ft | 455 kts | 229° |
| 2026-04-21 17:08 | 40.49068 | -72.81070 | 37557 ft | 454 kts | 229° |
| 2026-04-21 17:08 | 40.46690 | -72.83791 | 37796 ft | 453 kts | 228° |
| 2026-04-21 17:08 | 40.44316 | -72.86506 | 38073 ft | 452 kts | 228° |
| 2026-04-21 17:08 | 40.42743 | -72.88302 | 38233 ft | 452 kts | 228° |
| 2026-04-21 17:09 | 40.37202 | -72.94626 | 38406 ft | 456 kts | 228° |
| 2026-04-21 17:09 | 40.32440 | -73.00038 | 38393 ft | 451 kts | 228° |
| 2026-04-21 17:10 | 40.28554 | -73.04451 | 38384 ft | 448 kts | 228° |
| 2026-04-21 17:10 | 40.23856 | -73.09778 | 38404 ft | 446 kts | 228° |
| 2026-04-21 17:11 | 40.19159 | -73.15084 | 38417 ft | 445 kts | 228° |
| 2026-04-21 17:11 | 40.13706 | -73.21236 | 38413 ft | 446 kts | 228° |
| 2026-04-21 17:12 | 40.09768 | -73.25671 | 38409 ft | 447 kts | 228° |
| 2026-04-21 17:12 | 40.05081 | -73.30932 | 38407 ft | 448 kts | 228° |
| 2026-04-21 17:13 | 40.00345 | -73.36237 | 38418 ft | 449 kts | 228° |
| 2026-04-21 17:13 | 39.95594 | -73.41549 | 38420 ft | 451 kts | 228° |
| 2026-04-21 17:14 | 39.90834 | -73.46864 | 38410 ft | 452 kts | 228° |
| 2026-04-21 17:14 | 39.86088 | -73.52153 | 38419 ft | 452 kts | 228° |
| 2026-04-21 17:15 | 39.81297 | -73.57480 | 38414 ft | 453 kts | 228° |
| 2026-04-21 17:15 | 39.76502 | -73.62800 | 38421 ft | 453 kts | 228° |
| 2026-04-21 17:16 | 39.71707 | -73.68113 | 38412 ft | 452 kts | 228° |
| 2026-04-21 17:16 | 39.66954 | -73.73370 | 38412 ft | 452 kts | 228° |
| 2026-04-21 17:17 | 39.62172 | -73.78651 | 38415 ft | 451 kts | 228° |
| 2026-04-21 17:17 | 39.57398 | -73.83913 | 38412 ft | 450 kts | 228° |
| 2026-04-21 17:18 | 39.52624 | -73.89165 | 38410 ft | 450 kts | 227° |
| 2026-04-21 17:18 | 39.47890 | -73.94366 | 38412 ft | 449 kts | 227° |
| 2026-04-21 17:19 | 39.43125 | -73.99591 | 38415 ft | 449 kts | 227° |
| 2026-04-21 17:19 | 39.38404 | -74.04757 | 38409 ft | 448 kts | 227° |
| 2026-04-21 17:20 | 39.33646 | -74.09963 | 38254 ft | 450 kts | 227° |
| 2026-04-21 17:20 | 39.31246 | -74.12592 | 37782 ft | 452 kts | 227° |
| 2026-04-21 17:20 | 39.28851 | -74.15206 | 37227 ft | 450 kts | 228° |
| 2026-04-21 17:21 | 39.26499 | -74.17770 | 36697 ft | 449 kts | 228° |
| 2026-04-21 17:21 | 39.24120 | -74.20363 | 36180 ft | 447 kts | 228° |
| 2026-04-21 17:21 | 39.21749 | -74.22943 | 35776 ft | 444 kts | 228° |
| 2026-04-21 17:21 | 39.19396 | -74.25501 | 35357 ft | 441 kts | 228° |
| 2026-04-21 17:22 | 39.17064 | -74.28037 | 34932 ft | 438 kts | 228° |
| 2026-04-21 17:22 | 39.14743 | -74.30558 | 34530 ft | 435 kts | 228° |
| 2026-04-21 17:22 | 39.12437 | -74.33062 | 34073 ft | 432 kts | 228° |
| 2026-04-21 17:22 | 39.10142 | -74.35551 | 33624 ft | 430 kts | 228° |
| 2026-04-21 17:23 | 39.07895 | -74.37987 | 33182 ft | 426 kts | 228° |
| 2026-04-21 17:23 | 39.05602 | -74.40470 | 32759 ft | 423 kts | 228° |
| 2026-04-21 17:23 | 39.03390 | -74.42865 | 32540 ft | 424 kts | 228° |
| 2026-04-21 17:23 | 39.01096 | -74.45359 | 32311 ft | 439 kts | 228° |
| 2026-04-21 17:24 | 38.98730 | -74.47924 | 32086 ft | 454 kts | 227° |
| 2026-04-21 17:24 | 38.96378 | -74.50661 | 31809 ft | 455 kts | 235° |
| 2026-04-21 17:24 | 38.94519 | -74.53863 | 31555 ft | 441 kts | 247° |
| 2026-04-21 17:24 | 38.93201 | -74.57341 | 31305 ft | 427 kts | 257° |
| 2026-04-21 17:25 | 38.92407 | -74.60952 | 31060 ft | 417 kts | 264° |
| 2026-04-21 17:25 | 38.91758 | -74.64520 | 30819 ft | 415 kts | 264° |
| 2026-04-21 17:25 | 38.91089 | -74.68114 | 30565 ft | 412 kts | 264° |
| 2026-04-21 17:25 | 38.90402 | -74.71660 | 30105 ft | 407 kts | 263° |
| 2026-04-21 17:26 | 38.89710 | -74.75149 | 29644 ft | 401 kts | 263° |
| 2026-04-21 17:26 | 38.89036 | -74.78599 | 29156 ft | 396 kts | 264° |
| 2026-04-21 17:26 | 38.88391 | -74.82005 | 28683 ft | 391 kts | 264° |
| 2026-04-21 17:26 | 38.87760 | -74.85380 | 28254 ft | 386 kts | 264° |
| 2026-04-21 17:27 | 38.87137 | -74.88715 | 27790 ft | 382 kts | 264° |
| 2026-04-21 17:27 | 38.86520 | -74.92011 | 27348 ft | 378 kts | 264° |
| 2026-04-21 17:27 | 38.85905 | -74.95279 | 26900 ft | 375 kts | 264° |
| 2026-04-21 17:27 | 38.85294 | -74.98516 | 26468 ft | 372 kts | 264° |
| 2026-04-21 17:28 | 38.84711 | -75.01600 | 26050 ft | 369 kts | 264° |
| 2026-04-21 17:28 | 38.84107 | -75.04785 | 25619 ft | 366 kts | 264° |
| 2026-04-21 17:28 | 38.83507 | -75.07946 | 25136 ft | 364 kts | 264° |
| 2026-04-21 17:28 | 38.82912 | -75.11077 | 24751 ft | 360 kts | 264° |
| 2026-04-21 17:29 | 38.82319 | -75.14192 | 24343 ft | 358 kts | 264° |
| 2026-04-21 17:29 | 38.81727 | -75.17288 | 23916 ft | 356 kts | 263° |
| 2026-04-21 17:29 | 38.81146 | -75.20349 | 23684 ft | 354 kts | 265° |
| 2026-04-21 17:29 | 38.80768 | -75.23532 | 23433 ft | 370 kts | 271° |
| 2026-04-21 17:30 | 38.80567 | -75.26915 | 23181 ft | 390 kts | 272° |
| 2026-04-21 17:30 | 38.80386 | -75.30417 | 22930 ft | 408 kts | 272° |
| 2026-04-21 17:30 | 38.80185 | -75.34056 | 22651 ft | 410 kts | 271° |
| 2026-04-21 17:30 | 38.79966 | -75.37697 | 22380 ft | 409 kts | 271° |
| 2026-04-21 17:31 | 38.79737 | -75.41332 | 22107 ft | 408 kts | 271° |
| 2026-04-21 17:31 | 38.79507 | -75.44949 | 21829 ft | 407 kts | 271° |
| 2026-04-21 17:31 | 38.79275 | -75.48565 | 21574 ft | 406 kts | 271° |
| 2026-04-21 17:31 | 38.79044 | -75.52153 | 20997 ft | 402 kts | 271° |
| 2026-04-21 17:32 | 38.78814 | -75.55697 | 20402 ft | 396 kts | 271° |
| 2026-04-21 17:32 | 38.78587 | -75.59193 | 19799 ft | 391 kts | 271° |
| 2026-04-21 17:32 | 38.78363 | -75.62648 | 19216 ft | 387 kts | 271° |
| 2026-04-21 17:32 | 38.78144 | -75.66024 | 18635 ft | 384 kts | 271° |
| 2026-04-21 17:33 | 38.77923 | -75.69415 | 17978 ft | 380 kts | 271° |
| 2026-04-21 17:33 | 38.77703 | -75.72770 | 17389 ft | 376 kts | 271° |
| 2026-04-21 17:33 | 38.77485 | -75.76101 | 16555 ft | 378 kts | 271° |
| 2026-04-21 17:33 | 38.77266 | -75.79441 | 15874 ft | 376 kts | 270° |
| 2026-04-21 17:34 | 38.77046 | -75.82766 | 15253 ft | 373 kts | 270° |
| 2026-04-21 17:34 | 38.76826 | -75.86061 | 14673 ft | 369 kts | 270° |
| 2026-04-21 17:34 | 38.76607 | -75.89330 | 14082 ft | 366 kts | 270° |
| 2026-04-21 17:34 | 38.76390 | -75.92569 | 13451 ft | 363 kts | 270° |
| 2026-04-21 17:35 | 38.76174 | -75.95775 | 12857 ft | 360 kts | 270° |
| 2026-04-21 17:35 | 38.75960 | -75.98951 | 12294 ft | 356 kts | 270° |
| 2026-04-21 17:35 | 38.75751 | -76.02015 | 11747 ft | 353 kts | 270° |
| 2026-04-21 17:35 | 38.75541 | -76.05088 | 11206 ft | 349 kts | 270° |
| 2026-04-21 17:36 | 38.75464 | -76.08145 | 10981 ft | 334 kts | 278° |
| 2026-04-21 17:36 | 38.75684 | -76.11060 | 10904 ft | 328 kts | 282° |
| 2026-04-21 17:36 | 38.76006 | -76.14026 | 10848 ft | 337 kts | 282° |
| 2026-04-21 17:36 | 38.76328 | -76.16950 | 10753 ft | 327 kts | 282° |
| 2026-04-21 17:37 | 38.76632 | -76.19817 | 10693 ft | 322 kts | 282° |
| 2026-04-21 17:37 | 38.76921 | -76.22659 | 10636 ft | 322 kts | 282° |
| 2026-04-21 17:37 | 38.77201 | -76.25508 | 10578 ft | 323 kts | 281° |
| 2026-04-21 17:37 | 38.77475 | -76.28363 | 10521 ft | 323 kts | 281° |
| 2026-04-21 17:38 | 38.77744 | -76.31220 | 10469 ft | 323 kts | 281° |
| 2026-04-21 17:38 | 38.78007 | -76.34039 | 10403 ft | 323 kts | 281° |
| 2026-04-21 17:38 | 38.78271 | -76.36894 | 10341 ft | 322 kts | 281° |
| 2026-04-21 17:38 | 38.78532 | -76.39731 | 10267 ft | 317 kts | 281° |
| 2026-04-21 17:39 | 38.78780 | -76.42469 | 10200 ft | 302 kts | 281° |
| 2026-04-21 17:39 | 38.79021 | -76.45101 | 10095 ft | 294 kts | 281° |
| 2026-04-21 17:39 | 38.79255 | -76.47660 | 10009 ft | 283 kts | 281° |
| 2026-04-21 17:39 | 38.79477 | -76.50112 | 9992 ft | 270 kts | 282° |
| 2026-04-21 17:40 | 38.79687 | -76.52446 | 9994 ft | 260 kts | 282° |
| 2026-04-21 17:40 | 38.79864 | -76.54809 | 10017 ft | 280 kts | 279° |
| 2026-04-21 17:40 | 38.79964 | -76.57365 | 10009 ft | 298 kts | 277° |
| 2026-04-21 17:40 | 38.80041 | -76.60052 | 10007 ft | 303 kts | 277° |
| 2026-04-21 17:41 | 38.80114 | -76.62745 | 9996 ft | 301 kts | 277° |
| 2026-04-21 17:41 | 38.80193 | -76.65400 | 9992 ft | 294 kts | 277° |
| 2026-04-21 17:41 | 38.80270 | -76.67962 | 9982 ft | 282 kts | 277° |
| 2026-04-21 17:41 | 38.80347 | -76.70417 | 9967 ft | 270 kts | 278° |
| 2026-04-21 17:42 | 38.80425 | -76.72813 | 9678 ft | 267 kts | 278° |
| 2026-04-21 17:42 | 38.80503 | -76.75181 | 9413 ft | 264 kts | 278° |
| 2026-04-21 17:42 | 38.80664 | -76.77475 | 9140 ft | 258 kts | 290° |
| 2026-04-21 17:42 | 38.81418 | -76.79513 | 8903 ft | 252 kts | 306° |
| 2026-04-21 17:43 | 38.82479 | -76.81294 | 8657 ft | 251 kts | 310° |
| 2026-04-21 17:43 | 38.83591 | -76.83025 | 8410 ft | 252 kts | 310° |
| 2026-04-21 17:43 | 38.84701 | -76.84766 | 8145 ft | 252 kts | 310° |
| 2026-04-21 17:43 | 38.85804 | -76.86518 | 7908 ft | 253 kts | 309° |
| 2026-04-21 17:44 | 38.86901 | -76.88276 | 7613 ft | 253 kts | 309° |
| 2026-04-21 17:44 | 38.88015 | -76.90032 | 7310 ft | 255 kts | 312° |
| 2026-04-21 17:44 | 38.89257 | -76.91689 | 6946 ft | 260 kts | 315° |
| 2026-04-21 17:44 | 38.90551 | -76.93318 | 6569 ft | 261 kts | 315° |
| 2026-04-21 17:45 | 38.91856 | -76.94955 | 6180 ft | 263 kts | 315° |
| 2026-04-21 17:45 | 38.93152 | -76.96588 | 5923 ft | 260 kts | 315° |
| 2026-04-21 17:45 | 38.94422 | -76.98199 | 5670 ft | 253 kts | 314° |
| 2026-04-21 17:45 | 38.95632 | -76.99737 | 5454 ft | 242 kts | 314° |
| 2026-04-21 17:46 | 38.96783 | -77.01204 | 5089 ft | 238 kts | 314° |
| 2026-04-21 17:46 | 38.97952 | -77.02698 | 4675 ft | 236 kts | 314° |
| 2026-04-21 17:46 | 38.99097 | -77.04162 | 4410 ft | 228 kts | 314° |
| 2026-04-21 17:46 | 39.00210 | -77.05592 | 4196 ft | 227 kts | 314° |
| 2026-04-21 17:47 | 39.01337 | -77.07034 | 3899 ft | 230 kts | 312° |
| 2026-04-21 17:47 | 39.02463 | -77.08486 | 3656 ft | 229 kts | 313° |
| 2026-04-21 17:47 | 39.03590 | -77.09934 | 3396 ft | 227 kts | 311° |
| 2026-04-21 17:47 | 39.04377 | -77.11595 | 3128 ft | 218 kts | 283° |
| 2026-04-21 17:48 | 39.04297 | -77.13432 | 3011 ft | 195 kts | 244° |
| 2026-04-21 17:48 | 39.03483 | -77.14702 | 2993 ft | 177 kts | 218° |
| 2026-04-21 17:48 | 39.02398 | -77.15425 | 2970 ft | 177 kts | 190° |
| 2026-04-21 17:48 | 39.01181 | -77.15527 | 2960 ft | 173 kts | 188° |
| 2026-04-21 17:49 | 38.99982 | -77.15630 | 2682 ft | 173 kts | 180° |
| 2026-04-21 17:49 | 38.98828 | -77.15407 | 2554 ft | 164 kts | 166° |
| 2026-04-21 17:49 | 38.97789 | -77.14883 | 2422 ft | 156 kts | 157° |
| 2026-04-21 17:49 | 38.96866 | -77.14212 | 2176 ft | 151 kts | 153° |
| 2026-04-21 17:50 | 38.95970 | -77.13638 | 2139 ft | 141 kts | 158° |
| 2026-04-21 17:50 | 38.95104 | -77.13075 | 2043 ft | 142 kts | 155° |
| 2026-04-21 17:50 | 38.94241 | -77.12479 | 1871 ft | 140 kts | 153° |
| 2026-04-21 17:50 | 38.93390 | -77.11867 | 1712 ft | 139 kts | 153° |
| 2026-04-21 17:51 | 38.92572 | -77.11224 | 1572 ft | 137 kts | 150° |
| 2026-04-21 17:51 | 38.91784 | -77.10547 | 1450 ft | 134 kts | 147° |
| 2026-04-21 17:51 | 38.91056 | -77.09735 | 1317 ft | 144 kts | 138° |
| 2026-04-21 17:51 | 38.90533 | -77.08658 | 1071 ft | 145 kts | 109° |
| 2026-04-21 17:52 | 38.90258 | -77.07416 | 874 ft | 141 kts | 119° |
| 2026-04-21 17:52 | 38.89652 | -77.06478 | 710 ft | 134 kts | 140° |
| 2026-04-21 17:52 | 38.88977 | -77.05697 | 574 ft | 134 kts | 139° |
| 2026-04-21 17:52 | 38.88278 | -77.04876 | 468 ft | 133 kts | 139° |
| 2026-04-21 17:53 | 38.87539 | -77.04192 | 362 ft | 128 kts | 155° |
| 2026-04-21 17:53 | 38.86700 | -77.03938 | 172 ft | 124 kts | 173° |
| 2026-04-21 17:53 | 38.85850 | -77.03846 | 27 ft | 122 kts | 174° |
| 2026-04-21 17:53 | 38.85109 | -77.03771 | 24 ft | 89 kts | 175° |
| 2026-04-21 17:54 | 38.84612 | -77.03720 | 24 ft | 50 kts | 175° |
| 2026-04-21 17:54 | 38.84434 | -77.03713 | 23 ft | 18 kts | 195° |
| 2026-04-21 17:54 | 38.84391 | -77.03804 | 24 ft | 9 kts | 274° |
| 2026-04-21 17:54 | 38.84437 | -77.03845 | 27 ft | 9 kts | 355° |
| 2026-04-21 17:55 | 38.84511 | -77.03852 | 23 ft | 12 kts | 355° |
| 2026-04-21 17:55 | 38.84605 | -77.03862 | 23 ft | 14 kts | 355° |
| 2026-04-21 17:55 | 38.84703 | -77.03872 | 25 ft | 12 kts | 354° |
| 2026-04-21 17:55 | 38.84745 | -77.03923 | 25 ft | 9 kts | 290° |
| 2026-04-21 17:56 | 38.84722 | -77.03984 | 24 ft | 9 kts | 206° |
| 2026-04-21 17:56 | 38.84663 | -77.04020 | 26 ft | 10 kts | 205° |
| 2026-04-21 17:56 | 38.84603 | -77.04075 | 25 ft | 11 kts | 245° |
| 2026-04-21 17:56 | 38.84587 | -77.04157 | 23 ft | 8 kts | 287° |
| 2026-04-21 17:57 | 38.84632 | -77.04193 | 26 ft | 5 kts | 334° |
| 2026-04-21 17:57 | 38.84644 | -77.04201 | 26 ft | 2 kts | 334° |
| 2026-04-21 17:57 | 38.84649 | -77.04204 | 32 ft | 0 kts | 334° |